sensor_id;sensor_type;location;lat;lon;timestamp;P1;durP1;ratioP1;P2;durP2;ratioP2
62401;SDS011;48440;51.224;22.506;2023-06-26T00:05:23;6.60;;;4.78;;
62401;SDS011;48440;51.224;22.506;2023-06-26T00:08:07;7.10;;;4.80;;
62401;SDS011;48440;51.224;22.506;2023-06-26T00:11:15;7.15;;;4.90;;
62401;SDS011;48440;51.224;22.506;2023-06-26T00:13:51;5.60;;;4.50;;
62401;SDS011;48440;51.224;22.506;2023-06-26T00:16:20;6.28;;;4.30;;
62401;SDS011;48440;51.224;22.506;2023-06-26T00:22:48;6.78;;;4.65;;
62401;SDS011;48440;51.224;22.506;2023-06-26T00:29:27;6.22;;;5.07;;
62401;SDS011;48440;51.224;22.506;2023-06-26T00:31:55;9.02;;;5.00;;
62401;SDS011;48440;51.224;22.506;2023-06-26T00:34:21;6.70;;;4.50;;
62401;SDS011;48440;51.224;22.506;2023-06-26T00:36:46;7.03;;;4.60;;
62401;SDS011;48440;51.224;22.506;2023-06-26T00:39:19;6.57;;;4.20;;
62401;SDS011;48440;51.224;22.506;2023-06-26T00:42:21;5.15;;;3.88;;
62401;SDS011;48440;51.224;22.506;2023-06-26T00:44:47;5.80;;;3.60;;
62401;SDS011;48440;51.224;22.506;2023-06-26T00:47:31;5.13;;;3.75;;
62401;SDS011;48440;51.224;22.506;2023-06-26T01:09:35;6.20;;;4.10;;
62401;SDS011;48440;51.224;22.506;2023-06-26T01:12:01;5.38;;;4.45;;
62401;SDS011;48440;51.224;22.506;2023-06-26T01:18:03;7.70;;;4.40;;
62401;SDS011;48440;51.224;22.506;2023-06-26T01:20:59;6.72;;;4.47;;
62401;SDS011;48440;51.224;22.506;2023-06-26T01:26:58;6.70;;;4.45;;
62401;SDS011;48440;51.224;22.506;2023-06-26T01:29:53;6.22;;;4.72;;
62401;SDS011;48440;51.224;22.506;2023-06-26T01:32:39;6.78;;;4.72;;
62401;SDS011;48440;51.224;22.506;2023-06-26T01:35:13;7.13;;;4.72;;
62401;SDS011;48440;51.224;22.506;2023-06-26T01:37:40;7.25;;;5.15;;
62401;SDS011;48440;51.224;22.506;2023-06-26T01:40:08;8.75;;;5.30;;
62401;SDS011;48440;51.224;22.506;2023-06-26T01:42:39;7.38;;;4.90;;
62401;SDS011;48440;51.224;22.506;2023-06-26T01:45:15;8.05;;;5.05;;
62401;SDS011;48440;51.224;22.506;2023-06-26T01:47:54;7.22;;;5.68;;
62401;SDS011;48440;51.224;22.506;2023-06-26T01:50:31;8.13;;;5.00;;
62401;SDS011;48440;51.224;22.506;2023-06-26T01:53:07;8.48;;;5.30;;
62401;SDS011;48440;51.224;22.506;2023-06-26T01:55:40;8.60;;;5.10;;
62401;SDS011;48440;51.224;22.506;2023-06-26T01:58:27;8.18;;;5.40;;
62401;SDS011;48440;51.224;22.506;2023-06-26T02:00:53;7.28;;;4.97;;
62401;SDS011;48440;51.224;22.506;2023-06-26T02:03:18;9.80;;;5.47;;
62401;SDS011;48440;51.224;22.506;2023-06-26T02:05:47;8.90;;;5.70;;
62401;SDS011;48440;51.224;22.506;2023-06-26T02:08:19;6.57;;;5.18;;
62401;SDS011;48440;51.224;22.506;2023-06-26T02:10:47;6.75;;;5.10;;
62401;SDS011;48440;51.224;22.506;2023-06-26T02:13:16;7.32;;;5.22;;
62401;SDS011;48440;51.224;22.506;2023-06-26T02:15:41;8.90;;;5.70;;
62401;SDS011;48440;51.224;22.506;2023-06-26T02:18:07;8.93;;;6.00;;
62401;SDS011;48440;51.224;22.506;2023-06-26T02:20:40;9.27;;;5.70;;
62401;SDS011;48440;51.224;22.506;2023-06-26T02:26:54;7.35;;;5.78;;
62401;SDS011;48440;51.224;22.506;2023-06-26T02:30:14;7.68;;;5.60;;
62401;SDS011;48440;51.224;22.506;2023-06-26T02:32:39;8.32;;;5.72;;
62401;SDS011;48440;51.224;22.506;2023-06-26T02:35:05;7.18;;;5.93;;
62401;SDS011;48440;51.224;22.506;2023-06-26T02:37:31;9.25;;;6.18;;
62401;SDS011;48440;51.224;22.506;2023-06-26T02:39:56;10.05;;;6.43;;
62401;SDS011;48440;51.224;22.506;2023-06-26T02:42:25;10.77;;;6.47;;
62401;SDS011;48440;51.224;22.506;2023-06-26T02:44:50;9.73;;;6.97;;
62401;SDS011;48440;51.224;22.506;2023-06-26T02:47:18;10.65;;;7.53;;
62401;SDS011;48440;51.224;22.506;2023-06-26T02:49:44;13.48;;;7.88;;
62401;SDS011;48440;51.224;22.506;2023-06-26T02:52:09;13.63;;;7.55;;
62401;SDS011;48440;51.224;22.506;2023-06-26T02:54:35;12.23;;;8.20;;
62401;SDS011;48440;51.224;22.506;2023-06-26T02:57:00;12.68;;;8.80;;
62401;SDS011;48440;51.224;22.506;2023-06-26T02:59:26;17.50;;;9.63;;
62401;SDS011;48440;51.224;22.506;2023-06-26T03:01:51;14.32;;;10.10;;
62401;SDS011;48440;51.224;22.506;2023-06-26T03:04:17;16.35;;;10.48;;
62401;SDS011;48440;51.224;22.506;2023-06-26T03:06:50;19.38;;;10.73;;
62401;SDS011;48440;51.224;22.506;2023-06-26T03:09:18;14.60;;;10.10;;
62401;SDS011;48440;51.224;22.506;2023-06-26T03:11:44;14.52;;;9.95;;
62401;SDS011;48440;51.224;22.506;2023-06-26T03:14:14;15.88;;;10.02;;
62401;SDS011;48440;51.224;22.506;2023-06-26T03:16:40;15.93;;;10.13;;
62401;SDS011;48440;51.224;22.506;2023-06-26T03:19:08;15.70;;;10.45;;
62401;SDS011;48440;51.224;22.506;2023-06-26T03:21:48;14.93;;;10.20;;
62401;SDS011;48440;51.224;22.506;2023-06-26T03:24:24;15.30;;;10.05;;
62401;SDS011;48440;51.224;22.506;2023-06-26T03:26:55;13.60;;;9.02;;
62401;SDS011;48440;51.224;22.506;2023-06-26T03:29:29;13.30;;;9.68;;
62401;SDS011;48440;51.224;22.506;2023-06-26T03:31:55;14.60;;;9.40;;
62401;SDS011;48440;51.224;22.506;2023-06-26T03:34:21;15.30;;;9.20;;
62401;SDS011;48440;51.224;22.506;2023-06-26T03:36:46;13.15;;;8.88;;
62401;SDS011;48440;51.224;22.506;2023-06-26T03:39:15;13.35;;;9.15;;
62401;SDS011;48440;51.224;22.506;2023-06-26T03:41:50;14.15;;;9.48;;
62401;SDS011;48440;51.224;22.506;2023-06-26T03:44:18;11.57;;;9.07;;
62401;SDS011;48440;51.224;22.506;2023-06-26T03:46:43;13.90;;;9.82;;
62401;SDS011;48440;51.224;22.506;2023-06-26T03:49:09;11.98;;;8.55;;
62401;SDS011;48440;51.224;22.506;2023-06-26T03:51:48;14.70;;;8.82;;
62401;SDS011;48440;51.224;22.506;2023-06-26T03:54:21;12.93;;;9.07;;
62401;SDS011;48440;51.224;22.506;2023-06-26T03:56:54;11.52;;;7.70;;
62401;SDS011;48440;51.224;22.506;2023-06-26T03:59:20;10.98;;;8.02;;
62401;SDS011;48440;51.224;22.506;2023-06-26T04:01:45;10.70;;;8.45;;
62401;SDS011;48440;51.224;22.506;2023-06-26T04:04:11;13.73;;;8.98;;
62401;SDS011;48440;51.224;22.506;2023-06-26T04:06:38;11.80;;;7.53;;
62401;SDS011;48440;51.224;22.506;2023-06-26T04:09:04;16.52;;;8.45;;
62401;SDS011;48440;51.224;22.506;2023-06-26T04:11:30;11.10;;;7.88;;
62401;SDS011;48440;51.224;22.506;2023-06-26T04:13:56;11.05;;;7.55;;
62401;SDS011;48440;51.224;22.506;2023-06-26T04:16:21;9.23;;;7.50;;
62401;SDS011;48440;51.224;22.506;2023-06-26T04:18:50;10.32;;;7.13;;
62401;SDS011;48440;51.224;22.506;2023-06-26T04:21:17;10.02;;;7.35;;
62401;SDS011;48440;51.224;22.506;2023-06-26T04:23:42;9.52;;;6.93;;
62401;SDS011;48440;51.224;22.506;2023-06-26T04:26:08;9.48;;;7.22;;
62401;SDS011;48440;51.224;22.506;2023-06-26T04:28:34;9.52;;;7.30;;
62401;SDS011;48440;51.224;22.506;2023-06-26T04:31:07;11.45;;;7.25;;
62401;SDS011;48440;51.224;22.506;2023-06-26T04:33:36;10.77;;;7.13;;
62401;SDS011;48440;51.224;22.506;2023-06-26T04:36:03;9.65;;;7.10;;
62401;SDS011;48440;51.224;22.506;2023-06-26T04:38:29;9.68;;;7.18;;
62401;SDS011;48440;51.224;22.506;2023-06-26T04:41:13;9.52;;;6.45;;
62401;SDS011;48440;51.224;22.506;2023-06-26T04:43:38;8.98;;;6.63;;
62401;SDS011;48440;51.224;22.506;2023-06-26T04:46:04;8.82;;;6.47;;
62401;SDS011;48440;51.224;22.506;2023-06-26T04:48:31;8.43;;;6.63;;
62401;SDS011;48440;51.224;22.506;2023-06-26T04:50:59;9.05;;;6.97;;
62401;SDS011;48440;51.224;22.506;2023-06-26T04:53:25;9.75;;;6.65;;
62401;SDS011;48440;51.224;22.506;2023-06-26T04:55:52;10.10;;;6.28;;
62401;SDS011;48440;51.224;22.506;2023-06-26T04:58:20;9.95;;;6.68;;
62401;SDS011;48440;51.224;22.506;2023-06-26T05:00:48;8.38;;;6.22;;
62401;SDS011;48440;51.224;22.506;2023-06-26T05:03:24;10.43;;;6.85;;
62401;SDS011;48440;51.224;22.506;2023-06-26T05:11:36;7.75;;;5.68;;
62401;SDS011;48440;51.224;22.506;2023-06-26T05:14:33;8.18;;;5.72;;
62401;SDS011;48440;51.224;22.506;2023-06-26T05:17:07;9.03;;;5.70;;
62401;SDS011;48440;51.224;22.506;2023-06-26T05:19:42;11.35;;;5.97;;
62401;SDS011;48440;51.224;22.506;2023-06-26T05:22:20;8.57;;;5.70;;
62401;SDS011;48440;51.224;22.506;2023-06-26T05:24:59;5.78;;;4.78;;
62401;SDS011;48440;51.224;22.506;2023-06-26T05:27:31;9.20;;;5.65;;
62401;SDS011;48440;51.224;22.506;2023-06-26T05:30:01;7.93;;;5.63;;
62401;SDS011;48440;51.224;22.506;2023-06-26T05:32:27;10.35;;;5.43;;
62401;SDS011;48440;51.224;22.506;2023-06-26T05:34:55;7.28;;;5.03;;
62401;SDS011;48440;51.224;22.506;2023-06-26T05:37:29;6.95;;;5.07;;
62401;SDS011;48440;51.224;22.506;2023-06-26T05:39:56;5.53;;;4.35;;
62401;SDS011;48440;51.224;22.506;2023-06-26T05:42:26;6.28;;;4.40;;
62401;SDS011;48440;51.224;22.506;2023-06-26T05:44:52;6.03;;;4.57;;
62401;SDS011;48440;51.224;22.506;2023-06-26T05:47:18;6.38;;;4.53;;
62401;SDS011;48440;51.224;22.506;2023-06-26T05:49:44;4.95;;;4.28;;
62401;SDS011;48440;51.224;22.506;2023-06-26T05:52:10;9.35;;;4.30;;
62401;SDS011;48440;51.224;22.506;2023-06-26T05:54:36;6.25;;;4.20;;
62401;SDS011;48440;51.224;22.506;2023-06-26T05:57:02;8.18;;;4.57;;
62401;SDS011;48440;51.224;22.506;2023-06-26T05:59:29;6.90;;;4.65;;
62401;SDS011;48440;51.224;22.506;2023-06-26T06:01:57;7.18;;;4.53;;
62401;SDS011;48440;51.224;22.506;2023-06-26T06:04:22;9.55;;;4.30;;
62401;SDS011;48440;51.224;22.506;2023-06-26T06:06:48;6.75;;;4.32;;
62401;SDS011;48440;51.224;22.506;2023-06-26T06:09:13;4.88;;;3.97;;
62401;SDS011;48440;51.224;22.506;2023-06-26T06:11:39;5.57;;;3.88;;
62401;SDS011;48440;51.224;22.506;2023-06-26T06:14:04;7.13;;;4.50;;
62401;SDS011;48440;51.224;22.506;2023-06-26T06:16:29;8.80;;;4.78;;
62401;SDS011;48440;51.224;22.506;2023-06-26T06:18:55;10.68;;;4.97;;
62401;SDS011;48440;51.224;22.506;2023-06-26T06:21:20;7.43;;;3.80;;
62401;SDS011;48440;51.224;22.506;2023-06-26T06:23:46;6.53;;;4.68;;
62401;SDS011;48440;51.224;22.506;2023-06-26T06:26:11;5.05;;;3.60;;
62401;SDS011;48440;51.224;22.506;2023-06-26T06:28:38;5.57;;;3.95;;
62401;SDS011;48440;51.224;22.506;2023-06-26T06:31:04;5.55;;;3.83;;
62401;SDS011;48440;51.224;22.506;2023-06-26T06:33:30;5.47;;;3.65;;
62401;SDS011;48440;51.224;22.506;2023-06-26T06:35:55;7.18;;;3.75;;
62401;SDS011;48440;51.224;22.506;2023-06-26T06:38:21;6.18;;;3.58;;
62401;SDS011;48440;51.224;22.506;2023-06-26T06:40:46;4.60;;;3.28;;
62401;SDS011;48440;51.224;22.506;2023-06-26T06:43:11;5.20;;;3.45;;
62401;SDS011;48440;51.224;22.506;2023-06-26T06:45:37;5.85;;;3.67;;
62401;SDS011;48440;51.224;22.506;2023-06-26T06:48:03;7.10;;;3.53;;
62401;SDS011;48440;51.224;22.506;2023-06-26T06:50:29;6.28;;;3.20;;
62401;SDS011;48440;51.224;22.506;2023-06-26T06:52:54;3.85;;;2.92;;
62401;SDS011;48440;51.224;22.506;2023-06-26T06:55:20;3.92;;;2.55;;
62401;SDS011;48440;51.224;22.506;2023-06-26T06:57:45;4.90;;;2.50;;
62401;SDS011;48440;51.224;22.506;2023-06-26T07:00:11;2.85;;;2.13;;
62401;SDS011;48440;51.224;22.506;2023-06-26T07:02:40;3.15;;;2.35;;
62401;SDS011;48440;51.224;22.506;2023-06-26T07:05:07;4.18;;;2.25;;
62401;SDS011;48440;51.224;22.506;2023-06-26T07:07:33;3.58;;;2.28;;
62401;SDS011;48440;51.224;22.506;2023-06-26T07:10:00;3.55;;;2.38;;
62401;SDS011;48440;51.224;22.506;2023-06-26T07:12:27;5.25;;;2.50;;
62401;SDS011;48440;51.224;22.506;2023-06-26T07:14:53;3.08;;;2.28;;
62401;SDS011;48440;51.224;22.506;2023-06-26T07:17:20;4.78;;;2.65;;
62401;SDS011;48440;51.224;22.506;2023-06-26T07:19:46;3.60;;;2.17;;
62401;SDS011;48440;51.224;22.506;2023-06-26T07:22:12;4.45;;;2.80;;
62401;SDS011;48440;51.224;22.506;2023-06-26T07:24:37;5.05;;;2.72;;
62401;SDS011;48440;51.224;22.506;2023-06-26T07:27:03;5.68;;;2.63;;
62401;SDS011;48440;51.224;22.506;2023-06-26T07:29:28;3.75;;;2.55;;
62401;SDS011;48440;51.224;22.506;2023-06-26T07:31:54;3.28;;;2.22;;
62401;SDS011;48440;51.224;22.506;2023-06-26T07:34:19;3.13;;;2.28;;
62401;SDS011;48440;51.224;22.506;2023-06-26T07:36:45;4.50;;;2.60;;
62401;SDS011;48440;51.224;22.506;2023-06-26T07:39:10;3.60;;;2.60;;
62401;SDS011;48440;51.224;22.506;2023-06-26T07:41:36;3.80;;;2.30;;
62401;SDS011;48440;51.224;22.506;2023-06-26T07:44:01;4.95;;;2.78;;
62401;SDS011;48440;51.224;22.506;2023-06-26T07:46:27;5.38;;;2.85;;
62401;SDS011;48440;51.224;22.506;2023-06-26T07:48:53;3.60;;;2.65;;
62401;SDS011;48440;51.224;22.506;2023-06-26T07:51:18;3.55;;;2.60;;
62401;SDS011;48440;51.224;22.506;2023-06-26T07:53:44;3.10;;;2.53;;
62401;SDS011;48440;51.224;22.506;2023-06-26T07:56:10;5.53;;;2.70;;
62401;SDS011;48440;51.224;22.506;2023-06-26T07:58:35;4.30;;;2.85;;
62401;SDS011;48440;51.224;22.506;2023-06-26T08:01:00;5.18;;;2.80;;
62401;SDS011;48440;51.224;22.506;2023-06-26T08:03:26;6.15;;;2.70;;
62401;SDS011;48440;51.224;22.506;2023-06-26T08:05:52;7.13;;;2.70;;
62401;SDS011;48440;51.224;22.506;2023-06-26T08:08:17;3.58;;;2.85;;
62401;SDS011;48440;51.224;22.506;2023-06-26T08:10:43;4.40;;;2.53;;
62401;SDS011;48440;51.224;22.506;2023-06-26T08:13:08;5.88;;;2.88;;
62401;SDS011;48440;51.224;22.506;2023-06-26T08:15:34;6.35;;;2.90;;
62401;SDS011;48440;51.224;22.506;2023-06-26T08:17:59;4.65;;;2.78;;
62401;SDS011;48440;51.224;22.506;2023-06-26T08:20:25;5.53;;;2.58;;
62401;SDS011;48440;51.224;22.506;2023-06-26T08:22:50;5.10;;;2.90;;
62401;SDS011;48440;51.224;22.506;2023-06-26T08:25:17;4.82;;;2.63;;
62401;SDS011;48440;51.224;22.506;2023-06-26T08:27:43;4.72;;;2.50;;
62401;SDS011;48440;51.224;22.506;2023-06-26T08:30:08;6.03;;;2.75;;
62401;SDS011;48440;51.224;22.506;2023-06-26T08:32:35;3.33;;;2.70;;
62401;SDS011;48440;51.224;22.506;2023-06-26T08:35:00;4.45;;;2.50;;
62401;SDS011;48440;51.224;22.506;2023-06-26T08:37:25;3.53;;;2.40;;
62401;SDS011;48440;51.224;22.506;2023-06-26T08:39:51;2.90;;;2.53;;
62401;SDS011;48440;51.224;22.506;2023-06-26T08:42:16;3.33;;;2.42;;
62401;SDS011;48440;51.224;22.506;2023-06-26T08:44:42;3.50;;;2.60;;
62401;SDS011;48440;51.224;22.506;2023-06-26T08:47:08;2.80;;;2.50;;
62401;SDS011;48440;51.224;22.506;2023-06-26T08:49:42;3.50;;;2.67;;
62401;SDS011;48440;51.224;22.506;2023-06-26T08:52:17;3.67;;;2.70;;
62401;SDS011;48440;51.224;22.506;2023-06-26T08:54:49;3.85;;;2.58;;
62401;SDS011;48440;51.224;22.506;2023-06-26T08:57:21;5.07;;;2.90;;
62401;SDS011;48440;51.224;22.506;2023-06-26T08:59:48;3.65;;;2.75;;
62401;SDS011;48440;51.224;22.506;2023-06-26T09:02:14;5.50;;;2.83;;
62401;SDS011;48440;51.224;22.506;2023-06-26T09:04:40;6.03;;;2.85;;
62401;SDS011;48440;51.224;22.506;2023-06-26T09:07:06;6.15;;;2.90;;
62401;SDS011;48440;51.224;22.506;2023-06-26T09:09:32;3.80;;;2.78;;
62401;SDS011;48440;51.224;22.506;2023-06-26T09:11:58;3.50;;;2.72;;
62401;SDS011;48440;51.224;22.506;2023-06-26T09:14:23;4.07;;;2.67;;
62401;SDS011;48440;51.224;22.506;2023-06-26T09:16:49;3.38;;;2.78;;
62401;SDS011;48440;51.224;22.506;2023-06-26T09:19:15;5.07;;;2.90;;
62401;SDS011;48440;51.224;22.506;2023-06-26T09:21:41;3.97;;;2.75;;
62401;SDS011;48440;51.224;22.506;2023-06-26T09:24:08;4.93;;;2.90;;
62401;SDS011;48440;51.224;22.506;2023-06-26T09:26:38;5.13;;;3.30;;
62401;SDS011;48440;51.224;22.506;2023-06-26T09:29:05;6.15;;;3.15;;
62401;SDS011;48440;51.224;22.506;2023-06-26T09:31:32;4.80;;;3.30;;
62401;SDS011;48440;51.224;22.506;2023-06-26T09:33:58;7.55;;;3.30;;
62401;SDS011;48440;51.224;22.506;2023-06-26T09:36:26;6.57;;;3.15;;
62401;SDS011;48440;51.224;22.506;2023-06-26T09:38:53;4.72;;;3.10;;
62401;SDS011;48440;51.224;22.506;2023-06-26T09:41:18;3.70;;;3.17;;
62401;SDS011;48440;51.224;22.506;2023-06-26T09:43:47;3.65;;;3.17;;
62401;SDS011;48440;51.224;22.506;2023-06-26T09:46:21;3.38;;;2.92;;
62401;SDS011;48440;51.224;22.506;2023-06-26T09:48:57;3.40;;;3.08;;
62401;SDS011;48440;51.224;22.506;2023-06-26T09:51:31;4.35;;;2.72;;
62401;SDS011;48440;51.224;22.506;2023-06-26T09:53:57;4.88;;;2.90;;
62401;SDS011;48440;51.224;22.506;2023-06-26T09:56:24;4.50;;;3.22;;
62401;SDS011;48440;51.224;22.506;2023-06-26T09:58:49;4.50;;;2.97;;
62401;SDS011;48440;51.224;22.506;2023-06-26T10:01:15;4.05;;;3.33;;
62401;SDS011;48440;51.224;22.506;2023-06-26T10:03:40;6.47;;;3.42;;
62401;SDS011;48440;51.224;22.506;2023-06-26T10:06:07;3.90;;;3.10;;
62401;SDS011;48440;51.224;22.506;2023-06-26T10:08:34;4.20;;;3.30;;
62401;SDS011;48440;51.224;22.506;2023-06-26T10:11:01;4.55;;;3.13;;
62401;SDS011;48440;51.224;22.506;2023-06-26T10:13:27;3.75;;;3.22;;
62401;SDS011;48440;51.224;22.506;2023-06-26T10:16:04;3.75;;;3.03;;
62401;SDS011;48440;51.224;22.506;2023-06-26T10:18:32;5.00;;;3.13;;
62401;SDS011;48440;51.224;22.506;2023-06-26T10:21:03;3.38;;;2.83;;
62401;SDS011;48440;51.224;22.506;2023-06-26T10:23:31;3.70;;;3.00;;
62401;SDS011;48440;51.224;22.506;2023-06-26T10:25:59;5.57;;;3.10;;
62401;SDS011;48440;51.224;22.506;2023-06-26T10:28:26;5.93;;;3.40;;
62401;SDS011;48440;51.224;22.506;2023-06-26T10:30:55;4.72;;;3.28;;
62401;SDS011;48440;51.224;22.506;2023-06-26T10:33:22;6.90;;;3.58;;
62401;SDS011;48440;51.224;22.506;2023-06-26T10:35:48;6.93;;;3.47;;
62401;SDS011;48440;51.224;22.506;2023-06-26T10:38:14;11.60;;;6.30;;
62401;SDS011;48440;51.224;22.506;2023-06-26T10:40:43;6.30;;;4.30;;
62401;SDS011;48440;51.224;22.506;2023-06-26T10:43:11;5.93;;;3.50;;
62401;SDS011;48440;51.224;22.506;2023-06-26T10:45:43;3.65;;;3.30;;
62401;SDS011;48440;51.224;22.506;2023-06-26T10:48:18;3.40;;;3.10;;
62401;SDS011;48440;51.224;22.506;2023-06-26T10:50:47;5.25;;;2.85;;
62401;SDS011;48440;51.224;22.506;2023-06-26T10:53:23;3.30;;;2.83;;
62401;SDS011;48440;51.224;22.506;2023-06-26T10:56:00;6.88;;;3.67;;
62401;SDS011;48440;51.224;22.506;2023-06-26T10:58:41;4.40;;;3.30;;
62401;SDS011;48440;51.224;22.506;2023-06-26T11:01:14;4.35;;;3.25;;
62401;SDS011;48440;51.224;22.506;2023-06-26T11:03:44;5.28;;;3.95;;
62401;SDS011;48440;51.224;22.506;2023-06-26T11:06:12;4.65;;;3.95;;
62401;SDS011;48440;51.224;22.506;2023-06-26T11:08:49;6.13;;;3.60;;
62401;SDS011;48440;51.224;22.506;2023-06-26T11:14:16;7.15;;;4.55;;
62401;SDS011;48440;51.224;22.506;2023-06-26T11:16:43;6.53;;;4.00;;
62401;SDS011;48440;51.224;22.506;2023-06-26T11:19:09;6.25;;;3.58;;
62401;SDS011;48440;51.224;22.506;2023-06-26T11:21:36;6.57;;;3.65;;
62401;SDS011;48440;51.224;22.506;2023-06-26T11:24:03;5.30;;;3.80;;
62401;SDS011;48440;51.224;22.506;2023-06-26T11:26:30;4.63;;;3.83;;
62401;SDS011;48440;51.224;22.506;2023-06-26T11:29:06;5.53;;;3.95;;
62401;SDS011;48440;51.224;22.506;2023-06-26T11:31:33;5.68;;;4.20;;
62401;SDS011;48440;51.224;22.506;2023-06-26T11:34:04;4.80;;;4.30;;
62401;SDS011;48440;51.224;22.506;2023-06-26T11:36:32;6.63;;;4.00;;
62401;SDS011;48440;51.224;22.506;2023-06-26T11:39:02;4.97;;;4.30;;
62401;SDS011;48440;51.224;22.506;2023-06-26T11:41:33;5.70;;;4.10;;
62401;SDS011;48440;51.224;22.506;2023-06-26T11:46:30;8.10;;;4.65;;
62401;SDS011;48440;51.224;22.506;2023-06-26T11:48:56;5.38;;;4.45;;
62401;SDS011;48440;51.224;22.506;2023-06-26T11:51:22;5.20;;;4.43;;
62401;SDS011;48440;51.224;22.506;2023-06-26T11:53:47;6.72;;;4.60;;
62401;SDS011;48440;51.224;22.506;2023-06-26T11:56:14;5.55;;;4.40;;
62401;SDS011;48440;51.224;22.506;2023-06-26T11:58:57;5.85;;;4.88;;
62401;SDS011;48440;51.224;22.506;2023-06-26T12:01:34;5.45;;;4.15;;
62401;SDS011;48440;51.224;22.506;2023-06-26T12:04:01;5.70;;;4.75;;
62401;SDS011;48440;51.224;22.506;2023-06-26T12:06:39;6.75;;;5.35;;
62401;SDS011;48440;51.224;22.506;2023-06-26T12:09:07;6.13;;;5.05;;
62401;SDS011;48440;51.224;22.506;2023-06-26T12:11:36;6.53;;;4.97;;
62401;SDS011;48440;51.224;22.506;2023-06-26T12:14:03;8.60;;;5.45;;
62401;SDS011;48440;51.224;22.506;2023-06-26T12:16:30;6.53;;;5.15;;
62401;SDS011;48440;51.224;22.506;2023-06-26T12:18:59;6.93;;;5.32;;
62401;SDS011;48440;51.224;22.506;2023-06-26T12:24:03;6.43;;;4.68;;
62401;SDS011;48440;51.224;22.506;2023-06-26T12:26:29;6.00;;;5.20;;
62401;SDS011;48440;51.224;22.506;2023-06-26T12:31:43;8.90;;;5.50;;
62401;SDS011;48440;51.224;22.506;2023-06-26T12:34:18;7.18;;;5.75;;
62401;SDS011;48440;51.224;22.506;2023-06-26T12:36:46;6.95;;;5.35;;
62401;SDS011;48440;51.224;22.506;2023-06-26T12:39:14;9.07;;;5.80;;
62401;SDS011;48440;51.224;22.506;2023-06-26T12:41:47;7.78;;;5.43;;
62401;SDS011;48440;51.224;22.506;2023-06-26T12:44:27;7.03;;;5.35;;
62401;SDS011;48440;51.224;22.506;2023-06-26T12:46:55;7.03;;;5.60;;
62401;SDS011;48440;51.224;22.506;2023-06-26T12:49:31;7.63;;;5.68;;
62401;SDS011;48440;51.224;22.506;2023-06-26T12:51:59;7.85;;;5.65;;
62401;SDS011;48440;51.224;22.506;2023-06-26T12:54:26;8.57;;;6.05;;
62401;SDS011;48440;51.224;22.506;2023-06-26T12:56:52;8.48;;;5.65;;
62401;SDS011;48440;51.224;22.506;2023-06-26T12:59:18;8.98;;;6.13;;
62401;SDS011;48440;51.224;22.506;2023-06-26T13:01:43;9.68;;;5.78;;
62401;SDS011;48440;51.224;22.506;2023-06-26T13:04:08;9.32;;;5.57;;
62401;SDS011;48440;51.224;22.506;2023-06-26T13:06:35;6.47;;;5.60;;
62401;SDS011;48440;51.224;22.506;2023-06-26T13:09:01;7.28;;;5.90;;
62401;SDS011;48440;51.224;22.506;2023-06-26T13:11:30;6.50;;;5.70;;
62401;SDS011;48440;51.224;22.506;2023-06-26T13:13:57;7.35;;;5.43;;
62401;SDS011;48440;51.224;22.506;2023-06-26T13:16:22;6.63;;;5.50;;
62401;SDS011;48440;51.224;22.506;2023-06-26T13:18:48;7.63;;;5.78;;
62401;SDS011;48440;51.224;22.506;2023-06-26T13:21:14;9.75;;;5.30;;
62401;SDS011;48440;51.224;22.506;2023-06-26T13:23:40;8.52;;;5.28;;
62401;SDS011;48440;51.224;22.506;2023-06-26T13:26:06;8.80;;;6.00;;
62401;SDS011;48440;51.224;22.506;2023-06-26T13:28:32;9.05;;;5.65;;
62401;SDS011;48440;51.224;22.506;2023-06-26T13:30:57;10.85;;;5.75;;
62401;SDS011;48440;51.224;22.506;2023-06-26T13:33:23;9.50;;;6.25;;
62401;SDS011;48440;51.224;22.506;2023-06-26T13:35:51;7.65;;;5.68;;
62401;SDS011;48440;51.224;22.506;2023-06-26T13:38:18;7.53;;;5.35;;
62401;SDS011;48440;51.224;22.506;2023-06-26T13:40:45;11.13;;;6.00;;
62401;SDS011;48440;51.224;22.506;2023-06-26T13:43:10;8.45;;;5.75;;
62401;SDS011;48440;51.224;22.506;2023-06-26T13:45:36;6.95;;;5.15;;
62401;SDS011;48440;51.224;22.506;2023-06-26T13:48:02;7.43;;;5.43;;
62401;SDS011;48440;51.224;22.506;2023-06-26T13:50:28;8.38;;;5.65;;
62401;SDS011;48440;51.224;22.506;2023-06-26T13:52:54;9.13;;;5.78;;
62401;SDS011;48440;51.224;22.506;2023-06-26T13:55:19;9.20;;;5.72;;
62401;SDS011;48440;51.224;22.506;2023-06-26T13:57:47;7.75;;;5.40;;
62401;SDS011;48440;51.224;22.506;2023-06-26T14:00:13;9.15;;;5.25;;
62401;SDS011;48440;51.224;22.506;2023-06-26T14:02:41;7.55;;;5.10;;
62401;SDS011;48440;51.224;22.506;2023-06-26T14:05:06;7.20;;;5.10;;
62401;SDS011;48440;51.224;22.506;2023-06-26T14:07:32;7.25;;;4.72;;
62401;SDS011;48440;51.224;22.506;2023-06-26T14:09:57;9.10;;;5.03;;
62401;SDS011;48440;51.224;22.506;2023-06-26T14:12:23;8.07;;;4.43;;
62401;SDS011;48440;51.224;22.506;2023-06-26T14:14:50;5.75;;;4.53;;
62401;SDS011;48440;51.224;22.506;2023-06-26T14:17:15;6.97;;;4.93;;
62401;SDS011;48440;51.224;22.506;2023-06-26T14:19:41;9.48;;;5.03;;
62401;SDS011;48440;51.224;22.506;2023-06-26T14:22:06;11.07;;;6.45;;
62401;SDS011;48440;51.224;22.506;2023-06-26T14:24:32;10.80;;;5.70;;
62401;SDS011;48440;51.224;22.506;2023-06-26T14:26:58;9.18;;;5.10;;
62401;SDS011;48440;51.224;22.506;2023-06-26T14:29:24;7.70;;;5.00;;
62401;SDS011;48440;51.224;22.506;2023-06-26T14:31:49;8.82;;;5.18;;
62401;SDS011;48440;51.224;22.506;2023-06-26T14:34:15;6.88;;;5.28;;
62401;SDS011;48440;51.224;22.506;2023-06-26T14:36:40;6.90;;;4.60;;
62401;SDS011;48440;51.224;22.506;2023-06-26T14:39:05;7.60;;;4.95;;
62401;SDS011;48440;51.224;22.506;2023-06-26T14:41:31;10.65;;;5.22;;
62401;SDS011;48440;51.224;22.506;2023-06-26T14:43:57;7.72;;;5.22;;
62401;SDS011;48440;51.224;22.506;2023-06-26T14:46:22;12.43;;;6.82;;
62401;SDS011;48440;51.224;22.506;2023-06-26T14:48:48;18.23;;;9.98;;
62401;SDS011;48440;51.224;22.506;2023-06-26T14:51:14;14.73;;;9.48;;
62401;SDS011;48440;51.224;22.506;2023-06-26T14:53:39;13.15;;;8.10;;
62401;SDS011;48440;51.224;22.506;2023-06-26T14:56:04;16.40;;;7.95;;
62401;SDS011;48440;51.224;22.506;2023-06-26T14:58:30;14.57;;;8.05;;
62401;SDS011;48440;51.224;22.506;2023-06-26T15:00:56;22.13;;;10.45;;
62401;SDS011;48440;51.224;22.506;2023-06-26T15:03:22;18.52;;;9.52;;
62401;SDS011;48440;51.224;22.506;2023-06-26T15:05:47;9.15;;;5.97;;
62401;SDS011;48440;51.224;22.506;2023-06-26T15:08:13;7.13;;;5.10;;
62401;SDS011;48440;51.224;22.506;2023-06-26T15:10:39;7.00;;;4.78;;
62401;SDS011;48440;51.224;22.506;2023-06-26T15:13:05;10.55;;;6.20;;
62401;SDS011;48440;51.224;22.506;2023-06-26T15:15:31;9.52;;;5.30;;
62401;SDS011;48440;51.224;22.506;2023-06-26T15:17:56;7.88;;;4.50;;
62401;SDS011;48440;51.224;22.506;2023-06-26T15:20:22;6.32;;;4.80;;
62401;SDS011;48440;51.224;22.506;2023-06-26T15:22:50;7.40;;;4.95;;
62401;SDS011;48440;51.224;22.506;2023-06-26T15:25:16;7.05;;;4.82;;
62401;SDS011;48440;51.224;22.506;2023-06-26T15:27:41;8.40;;;5.07;;
62401;SDS011;48440;51.224;22.506;2023-06-26T15:30:07;9.50;;;4.85;;
62401;SDS011;48440;51.224;22.506;2023-06-26T15:32:33;10.35;;;4.90;;
62401;SDS011;48440;51.224;22.506;2023-06-26T15:34:59;6.45;;;4.78;;
62401;SDS011;48440;51.224;22.506;2023-06-26T15:37:25;10.05;;;5.55;;